sensor_id;sensor_type;location;lat;lon;timestamp;pressure;altitude;pressure_sealevel;temperature;humidity
54588;BME280;40484;50.198;19.576;2023-04-08T00:03:16;101781.36;;;7.43;55.27
54588;BME280;40484;50.198;19.576;2023-04-08T00:08:18;101779.95;;;7.28;55.39
54588;BME280;40484;50.198;19.576;2023-04-08T00:13:19;101779.74;;;7.15;55.56
54588;BME280;40484;50.198;19.576;2023-04-08T00:18:21;101783.03;;;7.14;55.57
54588;BME280;40484;50.198;19.576;2023-04-08T00:23:22;101792.48;;;7.19;55.71
54588;BME280;40484;50.198;19.576;2023-04-08T00:28:24;101791.80;;;7.09;55.73
54588;BME280;40484;50.198;19.576;2023-04-08T00:33:25;101787.47;;;6.89;55.88
54588;BME280;40484;50.198;19.576;2023-04-08T00:38:27;101795.30;;;7.03;56.03
54588;BME280;40484;50.198;19.576;2023-04-08T00:43:28;101793.56;;;7.06;55.64
54588;BME280;40484;50.198;19.576;2023-04-08T00:48:30;101803.95;;;6.80;55.84
54588;BME280;40484;50.198;19.576;2023-04-08T00:53:32;101802.15;;;6.82;56.03
54588;BME280;40484;50.198;19.576;2023-04-08T00:58:33;101813.41;;;6.86;55.91
54588;BME280;40484;50.198;19.576;2023-04-08T01:09:22;101815.72;;;7.00;55.64
54588;BME280;40484;50.198;19.576;2023-04-08T01:14:25;101818.73;;;6.98;55.35
54588;BME280;40484;50.198;19.576;2023-04-08T01:19:30;101822.03;;;7.04;55.25
54588;BME280;40484;50.198;19.576;2023-04-08T01:24:32;101816.92;;;6.79;54.64
54588;BME280;40484;50.198;19.576;2023-04-08T01:29:34;101815.61;;;6.90;55.15
54588;BME280;40484;50.198;19.576;2023-04-08T01:34:37;101818.77;;;6.99;55.06
54588;BME280;40484;50.198;19.576;2023-04-08T01:39:40;101818.77;;;6.99;55.01
54588;BME280;40484;50.198;19.576;2023-04-08T01:44:42;101825.19;;;6.93;54.78
54588;BME280;40484;50.198;19.576;2023-04-08T01:49:44;101822.00;;;6.76;54.84
54588;BME280;40484;50.198;19.576;2023-04-08T01:54:46;101822.48;;;6.72;54.98
54588;BME280;40484;50.198;19.576;2023-04-08T01:59:49;101823.47;;;6.64;55.19
54588;BME280;40484;50.198;19.576;2023-04-08T02:04:53;101828.73;;;6.80;55.36
54588;BME280;40484;50.198;19.576;2023-04-08T02:09:55;101834.75;;;6.75;55.23
54588;BME280;40484;50.198;19.576;2023-04-08T02:14:57;101834.61;;;6.69;55.35
54588;BME280;40484;50.198;19.576;2023-04-08T02:20:25;101833.61;;;6.57;55.65
54588;BME280;40484;50.198;19.576;2023-04-08T02:25:51;101841.74;;;6.80;55.61
54588;BME280;40484;50.198;19.576;2023-04-08T02:30:53;101844.83;;;6.79;55.51
54588;BME280;40484;50.198;19.576;2023-04-08T02:35:56;101841.05;;;6.65;55.71
54588;BME280;40484;50.198;19.576;2023-04-08T02:40:58;101848.39;;;6.68;55.67
54588;BME280;40484;50.198;19.576;2023-04-08T02:46:00;101846.91;;;6.60;55.82
54588;BME280;40484;50.198;19.576;2023-04-08T02:51:03;101853.30;;;6.66;55.81
54588;BME280;40484;50.198;19.576;2023-04-08T02:56:05;101854.56;;;6.67;55.66
54588;BME280;40484;50.198;19.576;2023-04-08T03:01:07;101863.87;;;6.74;55.66
54588;BME280;40484;50.198;19.576;2023-04-08T03:06:09;101870.77;;;6.69;55.66
54588;BME280;40484;50.198;19.576;2023-04-08T03:11:10;101865.22;;;6.64;55.69
54588;BME280;40484;50.198;19.576;2023-04-08T03:16:12;101871.80;;;6.63;55.78
54588;BME280;40484;50.198;19.576;2023-04-08T03:21:13;101874.15;;;6.92;55.34
54588;BME280;40484;50.198;19.576;2023-04-08T03:26:15;101880.59;;;6.67;55.73
54588;BME280;40484;50.198;19.576;2023-04-08T03:31:16;101876.14;;;6.89;55.56
54588;BME280;40484;50.198;19.576;2023-04-08T03:36:17;101873.16;;;7.06;55.41
54588;BME280;40484;50.198;19.576;2023-04-08T03:41:19;101878.23;;;7.03;55.40
54588;BME280;40484;50.198;19.576;2023-04-08T03:46:21;101888.03;;;7.12;55.39
54588;BME280;40484;50.198;19.576;2023-04-08T03:51:22;101882.38;;;7.04;55.03
54588;BME280;40484;50.198;19.576;2023-04-08T03:56:25;101887.03;;;7.00;55.49
54588;BME280;40484;50.198;19.576;2023-04-08T04:01:26;101893.12;;;7.03;55.34
54588;BME280;40484;50.198;19.576;2023-04-08T04:06:28;101893.48;;;6.96;55.40
54588;BME280;40484;50.198;19.576;2023-04-08T04:11:55;101900.60;;;6.98;55.27
54588;BME280;40484;50.198;19.576;2023-04-08T04:16:56;101914.12;;;7.14;55.28
54588;BME280;40484;50.198;19.576;2023-04-08T04:21:58;101917.32;;;7.11;55.20
54588;BME280;40484;50.198;19.576;2023-04-08T04:26:59;101924.77;;;6.98;55.27
54588;BME280;40484;50.198;19.576;2023-04-08T04:32:01;101933.66;;;7.11;55.36
54588;BME280;40484;50.198;19.576;2023-04-08T04:37:02;101936.70;;;7.29;55.28
54588;BME280;40484;50.198;19.576;2023-04-08T04:42:04;101937.07;;;7.15;55.16
54588;BME280;40484;50.198;19.576;2023-04-08T04:47:06;101945.03;;;7.18;55.15
54588;BME280;40484;50.198;19.576;2023-04-08T04:52:08;101938.38;;;7.24;55.00
54588;BME280;40484;50.198;19.576;2023-04-08T04:57:09;101946.25;;;7.17;54.93
54588;BME280;40484;50.198;19.576;2023-04-08T05:02:11;101954.76;;;7.12;55.19
54588;BME280;40484;50.198;19.576;2023-04-08T05:07:12;101966.62;;;7.21;55.16
54588;BME280;40484;50.198;19.576;2023-04-08T05:12:14;101965.98;;;7.19;55.12
54588;BME280;40484;50.198;19.576;2023-04-08T05:17:16;101968.68;;;6.94;55.22
54588;BME280;40484;50.198;19.576;2023-04-08T05:22:17;101973.78;;;6.92;55.21
54588;BME280;40484;50.198;19.576;2023-04-08T05:27:19;101987.82;;;7.11;55.11
54588;BME280;40484;50.198;19.576;2023-04-08T05:32:22;101983.21;;;7.28;54.86
54588;BME280;40484;50.198;19.576;2023-04-08T05:37:23;101994.66;;;7.24;54.76
54588;BME280;40484;50.198;19.576;2023-04-08T05:42:25;101991.95;;;7.24;54.82
54588;BME280;40484;50.198;19.576;2023-04-08T05:47:27;101998.02;;;7.39;54.64
54588;BME280;40484;50.198;19.576;2023-04-08T05:52:28;102007.85;;;7.30;54.63
54588;BME280;40484;50.198;19.576;2023-04-08T05:57:30;102006.19;;;7.43;54.60
54588;BME280;40484;50.198;19.576;2023-04-08T06:02:56;102006.61;;;7.69;54.36
54588;BME280;40484;50.198;19.576;2023-04-08T06:07:57;102018.49;;;7.72;54.27
54588;BME280;40484;50.198;19.576;2023-04-08T06:12:58;102030.48;;;7.93;54.35
54588;BME280;40484;50.198;19.576;2023-04-08T06:18:00;102022.78;;;7.98;54.11
54588;BME280;40484;50.198;19.576;2023-04-08T06:23:02;102031.42;;;8.03;54.42
54588;BME280;40484;50.198;19.576;2023-04-08T06:28:03;102041.35;;;7.90;54.33
54588;BME280;40484;50.198;19.576;2023-04-08T06:33:05;102036.34;;;7.94;54.30
54588;BME280;40484;50.198;19.576;2023-04-08T06:38:06;102048.45;;;7.84;54.47
54588;BME280;40484;50.198;19.576;2023-04-08T06:43:08;102064.55;;;7.69;54.96
54588;BME280;40484;50.198;19.576;2023-04-08T06:48:09;102059.45;;;7.93;54.53
54588;BME280;40484;50.198;19.576;2023-04-08T06:53:11;102073.55;;;8.06;54.76
54588;BME280;40484;50.198;19.576;2023-04-08T06:58:13;102072.17;;;8.08;54.34
54588;BME280;40484;50.198;19.576;2023-04-08T07:03:14;102077.02;;;7.98;54.85
54588;BME280;40484;50.198;19.576;2023-04-08T07:08:16;102080.15;;;8.05;54.43
54588;BME280;40484;50.198;19.576;2023-04-08T07:13:17;102079.49;;;8.18;54.34
54588;BME280;40484;50.198;19.576;2023-04-08T07:18:19;102078.81;;;8.17;54.22
54588;BME280;40484;50.198;19.576;2023-04-08T07:23:21;102084.34;;;8.36;54.46
54588;BME280;40484;50.198;19.576;2023-04-08T07:28:23;102082.21;;;8.61;54.62
54588;BME280;40484;50.198;19.576;2023-04-08T07:33:24;102088.85;;;8.61;53.81
54588;BME280;40484;50.198;19.576;2023-04-08T07:38:27;102091.00;;;8.64;53.60
54588;BME280;40484;50.198;19.576;2023-04-08T07:43:29;102093.00;;;8.70;53.81
54588;BME280;40484;50.198;19.576;2023-04-08T07:48:32;102099.34;;;8.58;55.25
54588;BME280;40484;50.198;19.576;2023-04-08T07:53:58;102102.67;;;9.22;54.45
54588;BME280;40484;50.198;19.576;2023-04-08T07:59:00;102089.84;;;9.39;53.90
54588;BME280;40484;50.198;19.576;2023-04-08T08:04:02;102098.25;;;9.52;53.94
54588;BME280;40484;50.198;19.576;2023-04-08T08:09:03;102108.23;;;9.60;52.82
54588;BME280;40484;50.198;19.576;2023-04-08T08:14:05;102115.61;;;9.75;52.84
54588;BME280;40484;50.198;19.576;2023-04-08T08:19:07;102125.16;;;9.84;52.92
54588;BME280;40484;50.198;19.576;2023-04-08T08:24:09;102115.52;;;9.80;52.73
54588;BME280;40484;50.198;19.576;2023-04-08T08:29:11;102121.55;;;9.89;52.42
54588;BME280;40484;50.198;19.576;2023-04-08T08:34:12;102127.88;;;9.85;52.09
54588;BME280;40484;50.198;19.576;2023-04-08T08:39:14;102127.91;;;9.94;51.36
54588;BME280;40484;50.198;19.576;2023-04-08T08:44:15;102130.34;;;9.83;51.69
54588;BME280;40484;50.198;19.576;2023-04-08T08:49:17;102136.40;;;9.58;51.48
54588;BME280;40484;50.198;19.576;2023-04-08T08:54:18;102142.52;;;9.29;51.95
54588;BME280;40484;50.198;19.576;2023-04-08T08:59:20;102136.49;;;9.38;51.99
54588;BME280;40484;50.198;19.576;2023-04-08T09:04:22;102148.98;;;9.56;51.79
54588;BME280;40484;50.198;19.576;2023-04-08T09:09:24;102152.62;;;9.69;51.96
54588;BME280;40484;50.198;19.576;2023-04-08T09:14:26;102169.11;;;9.80;52.34
54588;BME280;40484;50.198;19.576;2023-04-08T09:19:28;102172.55;;;9.76;51.71
54588;BME280;40484;50.198;19.576;2023-04-08T09:24:30;102173.20;;;9.95;51.58
54588;BME280;40484;50.198;19.576;2023-04-08T09:29:32;102175.59;;;10.09;50.97
54588;BME280;40484;50.198;19.576;2023-04-08T09:34:35;102181.97;;;9.79;50.22
54588;BME280;40484;50.198;19.576;2023-04-08T09:40:02;102194.38;;;9.94;50.96
54588;BME280;40484;50.198;19.576;2023-04-08T09:45:04;102190.84;;;10.12;50.96
54588;BME280;40484;50.198;19.576;2023-04-08T09:50:07;102185.40;;;10.36;50.92
54588;BME280;40484;50.198;19.576;2023-04-08T09:55:11;102182.44;;;10.83;51.27
54588;BME280;40484;50.198;19.576;2023-04-08T10:00:14;102183.74;;;10.85;51.44
54588;BME280;40484;50.198;19.576;2023-04-08T10:05:16;102188.48;;;11.25;50.15
54588;BME280;40484;50.198;19.576;2023-04-08T10:10:18;102187.93;;;11.40;49.22
54588;BME280;40484;50.198;19.576;2023-04-08T10:15:22;102196.33;;;11.22;48.87
54588;BME280;40484;50.198;19.576;2023-04-08T10:25:37;102197.01;;;10.73;49.23
54588;BME280;40484;50.198;19.576;2023-04-08T10:30:47;102199.70;;;10.82;48.87
54588;BME280;40484;50.198;19.576;2023-04-08T10:41:01;102202.06;;;10.76;49.27
54588;BME280;40484;50.198;19.576;2023-04-08T10:46:04;102204.68;;;10.72;49.31
54588;BME280;40484;50.198;19.576;2023-04-08T10:51:34;102199.53;;;10.94;49.08
54588;BME280;40484;50.198;19.576;2023-04-08T10:56:42;102196.61;;;10.65;48.88
54588;BME280;40484;50.198;19.576;2023-04-08T11:01:39;102196.12;;;10.61;49.42
54588;BME280;40484;50.198;19.576;2023-04-08T11:06:42;102192.85;;;10.53;49.70
54588;BME280;40484;50.198;19.576;2023-04-08T11:11:45;102188.36;;;10.38;49.60
54588;BME280;40484;50.198;19.576;2023-04-08T11:16:46;102204.64;;;10.50;49.87
54588;BME280;40484;50.198;19.576;2023-04-08T11:21:49;102209.05;;;10.72;49.20
54588;BME280;40484;50.198;19.576;2023-04-08T11:26:51;102200.83;;;10.77;49.18
54588;BME280;40484;50.198;19.576;2023-04-08T11:31:53;102199.84;;;10.70;49.47
54588;BME280;40484;50.198;19.576;2023-04-08T11:36:55;102199.70;;;10.84;49.09
54588;BME280;40484;50.198;19.576;2023-04-08T11:41:58;102194.21;;;10.79;48.90
54588;BME280;40484;50.198;19.576;2023-04-08T11:47:00;102194.09;;;10.83;49.14
54588;BME280;40484;50.198;19.576;2023-04-08T11:52:02;102189.30;;;10.83;49.29
54588;BME280;40484;50.198;19.576;2023-04-08T11:57:03;102192.45;;;10.74;48.71
54588;BME280;40484;50.198;19.576;2023-04-08T12:02:06;102196.80;;;10.84;48.72
54588;BME280;40484;50.198;19.576;2023-04-08T12:07:08;102201.44;;;10.87;49.19
54588;BME280;40484;50.198;19.576;2023-04-08T12:12:11;102199.50;;;10.73;50.12
54588;BME280;40484;50.198;19.576;2023-04-08T12:17:12;102199.99;;;10.77;50.34
54588;BME280;40484;50.198;19.576;2023-04-08T12:22:14;102209.77;;;10.67;50.61
54588;BME280;40484;50.198;19.576;2023-04-08T12:27:16;102205.84;;;10.49;50.77
54588;BME280;40484;50.198;19.576;2023-04-08T12:32:42;102212.95;;;10.60;50.74
54588;BME280;40484;50.198;19.576;2023-04-08T12:37:45;102203.03;;;10.63;50.61
54588;BME280;40484;50.198;19.576;2023-04-08T12:42:47;102207.49;;;10.68;50.69
54588;BME280;40484;50.198;19.576;2023-04-08T12:47:48;102210.26;;;10.51;50.76
54588;BME280;40484;50.198;19.576;2023-04-08T12:52:50;102204.65;;;10.52;50.92
54588;BME280;40484;50.198;19.576;2023-04-08T12:57:52;102204.15;;;10.56;51.05
54588;BME280;40484;50.198;19.576;2023-04-08T13:02:53;102209.63;;;10.60;50.95
54588;BME280;40484;50.198;19.576;2023-04-08T13:07:55;102211.31;;;10.43;51.39
54588;BME280;40484;50.198;19.576;2023-04-08T13:12:57;102196.56;;;10.34;51.95
54588;BME280;40484;50.198;19.576;2023-04-08T13:17:58;102193.77;;;10.47;51.65
54588;BME280;40484;50.198;19.576;2023-04-08T13:23:00;102193.63;;;10.61;51.69
54588;BME280;40484;50.198;19.576;2023-04-08T13:28:02;102187.41;;;10.42;51.88
54588;BME280;40484;50.198;19.576;2023-04-08T13:33:03;102187.54;;;10.39;52.33
54588;BME280;40484;50.198;19.576;2023-04-08T13:38:05;102191.91;;;10.49;52.06
54588;BME280;40484;50.198;19.576;2023-04-08T13:43:06;102183.11;;;10.45;52.12
54588;BME280;40484;50.198;19.576;2023-04-08T13:48:08;102188.21;;;10.60;52.25
54588;BME280;40484;50.198;19.576;2023-04-08T13:53:09;102183.83;;;10.79;51.97
54588;BME280;40484;50.198;19.576;2023-04-08T13:58:11;102177.54;;;10.77;52.05
54588;BME280;40484;50.198;19.576;2023-04-08T14:03:13;102169.73;;;10.81;52.13
54588;BME280;40484;50.198;19.576;2023-04-08T14:08:14;102182.65;;;11.03;52.02
54588;BME280;40484;50.198;19.576;2023-04-08T14:13:16;102190.24;;;10.98;51.80
54588;BME280;40484;50.198;19.576;2023-04-08T14:18:17;102184.88;;;11.00;51.78
54588;BME280;40484;50.198;19.576;2023-04-08T14:23:43;102174.49;;;11.34;51.35
54588;BME280;40484;50.198;19.576;2023-04-08T14:28:45;102172.80;;;11.21;51.26
54588;BME280;40484;50.198;19.576;2023-04-08T14:33:50;102181.29;;;11.20;51.30
54588;BME280;40484;50.198;19.576;2023-04-08T14:38:51;102180.88;;;11.18;51.01
54588;BME280;40484;50.198;19.576;2023-04-08T14:43:53;102186.35;;;11.02;51.42
54588;BME280;40484;50.198;19.576;2023-04-08T14:48:55;102187.70;;;11.06;51.28
54588;BME280;40484;50.198;19.576;2023-04-08T14:53:56;102195.33;;;11.15;51.14
54588;BME280;40484;50.198;19.576;2023-04-08T14:58:58;102194.02;;;11.33;50.85
54588;BME280;40484;50.198;19.576;2023-04-08T15:03:59;102197.24;;;11.38;50.78
54588;BME280;40484;50.198;19.576;2023-04-08T15:09:01;102195.49;;;11.45;50.88
54588;BME280;40484;50.198;19.576;2023-04-08T15:14:02;102192.99;;;11.68;50.58
54588;BME280;40484;50.198;19.576;2023-04-08T15:19:04;102199.77;;;11.76;50.23
54588;BME280;40484;50.198;19.576;2023-04-08T15:24:05;102195.08;;;11.69;50.36
54588;BME280;40484;50.198;19.576;2023-04-08T15:29:07;102192.27;;;11.61;50.43
54588;BME280;40484;50.198;19.576;2023-04-08T15:34:09;102190.32;;;11.46;50.75
54588;BME280;40484;50.198;19.576;2023-04-08T15:39:10;102183.67;;;11.59;50.44
54588;BME280;40484;50.198;19.576;2023-04-08T15:44:12;102193.68;;;11.60;50.34
54588;BME280;40484;50.198;19.576;2023-04-08T15:49:13;102203.03;;;11.59;50.25
54588;BME280;40484;50.198;19.576;2023-04-08T15:54:15;102197.88;;;11.39;50.09
54588;BME280;40484;50.198;19.576;2023-04-08T15:59:17;102203.70;;;11.37;50.29
54588;BME280;40484;50.198;19.576;2023-04-08T16:04:18;102204.45;;;11.57;50.00
54588;BME280;40484;50.198;19.576;2023-04-08T16:09:47;102213.25;;;11.84;49.57
54588;BME280;40484;50.198;19.576;2023-04-08T16:14:49;102216.21;;;11.86;49.47
54588;BME280;40484;50.198;19.576;2023-04-08T16:19:51;102214.64;;;11.90;49.41
54588;BME280;40484;50.198;19.576;2023-04-08T16:24:53;102211.01;;;11.85;49.54
54588;BME280;40484;50.198;19.576;2023-04-08T16:29:54;102207.77;;;11.90;49.46
54588;BME280;40484;50.198;19.576;2023-04-08T16:34:57;102213.14;;;11.88;49.22
54588;BME280;40484;50.198;19.576;2023-04-08T16:39:59;102213.34;;;11.87;49.15
54588;BME280;40484;50.198;19.576;2023-04-08T16:45:01;102215.82;;;11.76;49.30
54588;BME280;40484;50.198;19.576;2023-04-08T16:50:03;102223.77;;;11.88;49.04
54588;BME280;40484;50.198;19.576;2023-04-08T16:55:05;102226.83;;;11.96;48.94
54588;BME280;40484;50.198;19.576;2023-04-08T17:00:08;102229.23;;;11.92;48.85
54588;BME280;40484;50.198;19.576;2023-04-08T17:05:10;102237.15;;;11.91;48.78
54588;BME280;40484;50.198;19.576;2023-04-08T17:10:12;102242.87;;;11.96;48.79
54588;BME280;40484;50.198;19.576;2023-04-08T17:15:13;102249.33;;;11.97;48.70
54588;BME280;40484;50.198;19.576;2023-04-08T17:20:15;102254.27;;;11.93;48.70
54588;BME280;40484;50.198;19.576;2023-04-08T17:25:17;102258.35;;;11.88;48.82
54588;BME280;40484;50.198;19.576;2023-04-08T17:30:18;102265.39;;;11.85;48.90
54588;BME280;40484;50.198;19.576;2023-04-08T17:35:20;102259.60;;;11.77;48.98
54588;BME280;40484;50.198;19.576;2023-04-08T17:40:21;102272.16;;;11.70;49.13
54588;BME280;40484;50.198;19.576;2023-04-08T17:45:23;102275.60;;;11.76;49.07
54588;BME280;40484;50.198;19.576;2023-04-08T17:50:24;102279.69;;;11.71;49.12
54588;BME280;40484;50.198;19.576;2023-04-08T17:55:51;102282.77;;;11.69;49.14
54588;BME280;40484;50.198;19.576;2023-04-08T18:00:54;102276.93;;;11.69;49.18
54588;BME280;40484;50.198;19.576;2023-04-08T18:05:56;102284.25;;;11.59;49.26
54588;BME280;40484;50.198;19.576;2023-04-08T18:10:58;102291.03;;;11.55;49.32
54588;BME280;40484;50.198;19.576;2023-04-08T18:16:01;102291.84;;;11.54;49.25
54588;BME280;40484;50.198;19.576;2023-04-08T18:21:03;102296.44;;;11.55;49.25
54588;BME280;40484;50.198;19.576;2023-04-08T18:26:04;102296.37;;;11.51;49.30
54588;BME280;40484;50.198;19.576;2023-04-08T18:31:06;102313.73;;;11.44;49.30
54588;BME280;40484;50.198;19.576;2023-04-08T18:36:09;102316.95;;;11.39;49.35
54588;BME280;40484;50.198;19.576;2023-04-08T18:41:14;102318.82;;;11.28;49.44
54588;BME280;40484;50.198;19.576;2023-04-08T18:46:16;102327.24;;;11.23;49.58
54588;BME280;40484;50.198;19.576;2023-04-08T18:51:19;102307.35;;;11.17;49.75
54588;BME280;40484;50.198;19.576;2023-04-08T18:56:21;102309.47;;;11.18;49.78
54588;BME280;40484;50.198;19.576;2023-04-08T19:01:22;102314.53;;;11.22;49.83
54588;BME280;40484;50.198;19.576;2023-04-08T19:06:24;102319.76;;;11.24;49.81
54588;BME280;40484;50.198;19.576;2023-04-08T19:11:27;102322.25;;;11.24;49.84
54588;BME280;40484;50.198;19.576;2023-04-08T19:16:29;102314.60;;;11.25;49.83
54588;BME280;40484;50.198;19.576;2023-04-08T19:21:30;102322.16;;;11.28;49.83
54588;BME280;40484;50.198;19.576;2023-04-08T19:26:32;102325.90;;;11.28;49.75
54588;BME280;40484;50.198;19.576;2023-04-08T19:31:34;102319.59;;;11.25;49.78
54588;BME280;40484;50.198;19.576;2023-04-08T19:37:00;102318.73;;;11.34;49.67
54588;BME280;40484;50.198;19.576;2023-04-08T19:42:01;102318.05;;;11.31;49.64
54588;BME280;40484;50.198;19.576;2023-04-08T19:47:03;102325.90;;;11.28;49.63
54588;BME280;40484;50.198;19.576;2023-04-08T19:52:05;102321.41;;;11.23;49.75
54588;BME280;40484;50.198;19.576;2023-04-08T19:57:07;102327.19;;;11.12;49.88
54588;BME280;40484;50.198;19.576;2023-04-08T20:02:10;102323.92;;;11.13;49.92
54588;BME280;40484;50.198;19.576;2023-04-08T20:07:12;102331.66;;;11.15;49.94
54588;BME280;40484;50.198;19.576;2023-04-08T20:12:13;102330.63;;;11.15;49.95
54588;BME280;40484;50.198;19.576;2023-04-08T20:17:15;102323.17;;;11.08;50.04
54588;BME280;40484;50.198;19.576;2023-04-08T20:22:17;102323.77;;;11.06;49.94
54588;BME280;40484;50.198;19.576;2023-04-08T20:27:19;102330.11;;;11.02;50.00
54588;BME280;40484;50.198;19.576;2023-04-08T20:32:21;102317.48;;;10.94;50.10
54588;BME280;40484;50.198;19.576;2023-04-08T20:37:23;102327.96;;;10.89;50.36
54588;BME280;40484;50.198;19.576;2023-04-08T20:42:25;102326.09;;;10.99;50.37
54588;BME280;40484;50.198;19.576;2023-04-08T20:47:26;102322.61;;;11.01;50.49
54588;BME280;40484;50.198;19.576;2023-04-08T20:52:28;102312.27;;;10.94;50.45
54588;BME280;40484;50.198;19.576;2023-04-08T20:57:30;102314.16;;;10.76;50.80
54588;BME280;40484;50.198;19.576;2023-04-08T21:02:31;102307.00;;;10.46;51.34
54588;BME280;40484;50.198;19.576;2023-04-08T21:07:34;102317.95;;;10.61;51.43
54588;BME280;40484;50.198;19.576;2023-04-08T21:12:37;102316.62;;;10.84;51.16
54588;BME280;40484;50.198;19.576;2023-04-08T21:17:39;102320.45;;;10.88;51.08
54588;BME280;40484;50.198;19.576;2023-04-08T21:23:05;102329.89;;;11.01;50.92
54588;BME280;40484;50.198;19.576;2023-04-08T21:32:01;102330.16;;;11.04;50.81
54588;BME280;40484;50.198;19.576;2023-04-08T21:37:02;102334.39;;;10.96;51.04
54588;BME280;40484;50.198;19.576;2023-04-08T21:42:04;102331.13;;;10.90;51.35
54588;BME280;40484;50.198;19.576;2023-04-08T21:47:06;102327.52;;;10.97;51.31
54588;BME280;40484;50.198;19.576;2023-04-08T21:52:07;102332.27;;;11.05;51.34
54588;BME280;40484;50.198;19.576;2023-04-08T21:57:09;102326.77;;;11.11;51.22
54588;BME280;40484;50.198;19.576;2023-04-08T22:02:11;102323.37;;;11.07;51.32
54588;BME280;40484;50.198;19.576;2023-04-08T22:07:12;102317.47;;;11.14;51.38
54588;BME280;40484;50.198;19.576;2023-04-08T22:12:14;102314.14;;;11.13;51.38
54588;BME280;40484;50.198;19.576;2023-04-08T22:17:15;102313.09;;;11.23;51.23
54588;BME280;40484;50.198;19.576;2023-04-08T22:22:17;102320.50;;;11.29;51.10
54588;BME280;40484;50.198;19.576;2023-04-08T22:27:19;102311.16;;;11.10;51.29
54588;BME280;40484;50.198;19.576;2023-04-08T22:32:20;102307.70;;;10.94;51.45
54588;BME280;40484;50.198;19.576;2023-04-08T22:37:22;102309.45;;;10.99;51.47
54588;BME280;40484;50.198;19.576;2023-04-08T22:42:23;102309.23;;;11.08;51.28
54588;BME280;40484;50.198;19.576;2023-04-08T22:47:25;102302.30;;;11.04;51.30
54588;BME280;40484;50.198;19.576;2023-04-08T22:52:26;102309.48;;;11.09;51.22
54588;BME280;40484;50.198;19.576;2023-04-08T22:57:28;102302.69;;;11.13;51.12
54588;BME280;40484;50.198;19.576;2023-04-08T23:02:30;102308.02;;;11.09;51.01
54588;BME280;40484;50.198;19.576;2023-04-08T23:07:31;102303.55;;;11.05;50.90
54588;BME280;40484;50.198;19.576;2023-04-08T23:12:33;102301.51;;;11.06;50.87
54588;BME280;40484;50.198;19.576;2023-04-08T23:18:00;102299.28;;;11.09;50.73
54588;BME280;40484;50.198;19.576;2023-04-08T23:23:02;102301.51;;;11.06;50.65
54588;BME280;40484;50.198;19.576;2023-04-08T23:28:04;102292.16;;;10.98;50.72
54588;BME280;40484;50.198;19.576;2023-04-08T23:33:05;102298.21;;;10.99;50.77
54588;BME280;40484;50.198;19.576;2023-04-08T23:38:07;102296.34;;;10.89;50.65
54588;BME280;40484;50.198;19.576;2023-04-08T23:43:08;102300.78;;;10.83;50.61
54588;BME280;40484;50.198;19.576;2023-04-08T23:48:10;102301.05;;;10.76;50.52
54588;BME280;40484;50.198;19.576;2023-04-08T23:53:11;102305.26;;;10.69;50.48
54588;BME280;40484;50.198;19.576;2023-04-08T23:58:12;102303.32;;;10.65;50.43
